sensor_id;sensor_type;location;lat;lon;timestamp;P1;durP1;ratioP1;P2;durP2;ratioP2
39218;SDS011;24934;52.752;6.964;2022-12-18T00:01:05;215.73;;;67.93;;
39218;SDS011;24934;52.752;6.964;2022-12-18T00:03:39;213.50;;;69.60;;
39218;SDS011;24934;52.752;6.964;2022-12-18T00:06:06;223.27;;;67.67;;
39218;SDS011;24934;52.752;6.964;2022-12-18T00:08:34;225.73;;;69.43;;
39218;SDS011;24934;52.752;6.964;2022-12-18T00:11:18;216.10;;;66.80;;
39218;SDS011;24934;52.752;6.964;2022-12-18T00:13:49;223.20;;;69.30;;
39218;SDS011;24934;52.752;6.964;2022-12-18T00:16:16;219.80;;;68.87;;
39218;SDS011;24934;52.752;6.964;2022-12-18T00:18:45;225.87;;;69.20;;
39218;SDS011;24934;52.752;6.964;2022-12-18T00:21:12;220.73;;;68.33;;
39218;SDS011;24934;52.752;6.964;2022-12-18T00:23:39;214.77;;;68.10;;
39218;SDS011;24934;52.752;6.964;2022-12-18T00:26:10;214.47;;;67.87;;
39218;SDS011;24934;52.752;6.964;2022-12-18T00:28:40;215.37;;;68.03;;
39218;SDS011;24934;52.752;6.964;2022-12-18T00:31:08;209.37;;;67.47;;
39218;SDS011;24934;52.752;6.964;2022-12-18T00:33:37;195.33;;;67.70;;
39218;SDS011;24934;52.752;6.964;2022-12-18T00:36:03;200.73;;;66.53;;
39218;SDS011;24934;52.752;6.964;2022-12-18T00:38:30;208.33;;;65.87;;
39218;SDS011;24934;52.752;6.964;2022-12-18T00:40:59;212.10;;;66.17;;
39218;SDS011;24934;52.752;6.964;2022-12-18T00:43:25;214.43;;;69.57;;
39218;SDS011;24934;52.752;6.964;2022-12-18T00:45:50;202.37;;;65.90;;
39218;SDS011;24934;52.752;6.964;2022-12-18T00:48:16;206.27;;;67.70;;
39218;SDS011;24934;52.752;6.964;2022-12-18T00:50:42;207.10;;;67.93;;
39218;SDS011;24934;52.752;6.964;2022-12-18T00:53:07;214.33;;;66.97;;
39218;SDS011;24934;52.752;6.964;2022-12-18T00:55:39;201.80;;;65.43;;
39218;SDS011;24934;52.752;6.964;2022-12-18T00:58:05;221.90;;;68.13;;
39218;SDS011;24934;52.752;6.964;2022-12-18T01:00:31;223.40;;;68.33;;
39218;SDS011;24934;52.752;6.964;2022-12-18T01:02:57;236.23;;;71.13;;
39218;SDS011;24934;52.752;6.964;2022-12-18T01:05:22;230.67;;;69.63;;
39218;SDS011;24934;52.752;6.964;2022-12-18T01:07:51;246.07;;;69.30;;
39218;SDS011;24934;52.752;6.964;2022-12-18T01:10:16;242.37;;;70.00;;
39218;SDS011;24934;52.752;6.964;2022-12-18T01:12:42;236.77;;;69.47;;
39218;SDS011;24934;52.752;6.964;2022-12-18T01:15:09;216.73;;;67.00;;
39218;SDS011;24934;52.752;6.964;2022-12-18T01:17:36;211.00;;;65.30;;
39218;SDS011;24934;52.752;6.964;2022-12-18T01:20:02;199.73;;;62.90;;
39218;SDS011;24934;52.752;6.964;2022-12-18T01:22:28;194.57;;;62.13;;
39218;SDS011;24934;52.752;6.964;2022-12-18T01:24:54;187.13;;;62.67;;
39218;SDS011;24934;52.752;6.964;2022-12-18T01:27:19;191.27;;;62.33;;
39218;SDS011;24934;52.752;6.964;2022-12-18T01:29:45;161.43;;;59.80;;
39218;SDS011;24934;52.752;6.964;2022-12-18T01:32:10;175.37;;;57.23;;
39218;SDS011;24934;52.752;6.964;2022-12-18T01:34:36;173.23;;;58.47;;
39218;SDS011;24934;52.752;6.964;2022-12-18T01:37:06;160.87;;;56.87;;
39218;SDS011;24934;52.752;6.964;2022-12-18T01:39:31;162.07;;;57.43;;
39218;SDS011;24934;52.752;6.964;2022-12-18T01:42:05;165.27;;;56.20;;
39218;SDS011;24934;52.752;6.964;2022-12-18T01:49:49;165.47;;;54.80;;
39218;SDS011;24934;52.752;6.964;2022-12-18T01:52:16;148.80;;;54.33;;
39218;SDS011;24934;52.752;6.964;2022-12-18T01:54:43;158.73;;;53.63;;
39218;SDS011;24934;52.752;6.964;2022-12-18T01:57:09;163.60;;;54.77;;
39218;SDS011;24934;52.752;6.964;2022-12-18T01:59:36;152.63;;;55.27;;
39218;SDS011;24934;52.752;6.964;2022-12-18T02:02:03;153.70;;;54.60;;
39218;SDS011;24934;52.752;6.964;2022-12-18T02:04:29;143.33;;;52.20;;
39218;SDS011;24934;52.752;6.964;2022-12-18T02:07:00;153.77;;;52.13;;
39218;SDS011;24934;52.752;6.964;2022-12-18T02:09:29;152.07;;;52.50;;
39218;SDS011;24934;52.752;6.964;2022-12-18T02:14:48;145.70;;;52.67;;
39218;SDS011;24934;52.752;6.964;2022-12-18T02:18:08;146.43;;;51.10;;
39218;SDS011;24934;52.752;6.964;2022-12-18T02:28:28;143.77;;;49.93;;
39218;SDS011;24934;52.752;6.964;2022-12-18T02:30:59;133.43;;;48.90;;
39218;SDS011;24934;52.752;6.964;2022-12-18T02:33:27;134.97;;;50.83;;
39218;SDS011;24934;52.752;6.964;2022-12-18T02:35:57;139.70;;;49.77;;
39218;SDS011;24934;52.752;6.964;2022-12-18T02:38:28;124.80;;;48.87;;
39218;SDS011;24934;52.752;6.964;2022-12-18T02:40:55;128.60;;;49.37;;
39218;SDS011;24934;52.752;6.964;2022-12-18T02:43:22;136.97;;;49.57;;
39218;SDS011;24934;52.752;6.964;2022-12-18T02:45:56;128.63;;;48.43;;
39218;SDS011;24934;52.752;6.964;2022-12-18T02:48:24;147.73;;;50.57;;
39218;SDS011;24934;52.752;6.964;2022-12-18T02:51:15;120.47;;;48.90;;
39218;SDS011;24934;52.752;6.964;2022-12-18T02:53:58;127.73;;;46.90;;
39218;SDS011;24934;52.752;6.964;2022-12-18T02:56:40;141.40;;;49.33;;
39218;SDS011;24934;52.752;6.964;2022-12-18T02:59:12;119.80;;;48.00;;
39218;SDS011;24934;52.752;6.964;2022-12-18T03:04:26;127.13;;;47.60;;
39218;SDS011;24934;52.752;6.964;2022-12-18T03:06:59;134.73;;;49.73;;
39218;SDS011;24934;52.752;6.964;2022-12-18T03:09:29;119.00;;;46.50;;
39218;SDS011;24934;52.752;6.964;2022-12-18T03:12:02;125.33;;;49.23;;
39218;SDS011;24934;52.752;6.964;2022-12-18T03:17:33;122.33;;;46.33;;
39218;SDS011;24934;52.752;6.964;2022-12-18T03:20:03;125.50;;;47.27;;
39218;SDS011;24934;52.752;6.964;2022-12-18T03:22:33;118.37;;;45.53;;
39218;SDS011;24934;52.752;6.964;2022-12-18T03:25:00;111.53;;;46.27;;
39218;SDS011;24934;52.752;6.964;2022-12-18T03:27:30;116.83;;;45.20;;
39218;SDS011;24934;52.752;6.964;2022-12-18T03:30:04;114.10;;;46.47;;
39218;SDS011;24934;52.752;6.964;2022-12-18T03:32:35;107.40;;;44.83;;
39218;SDS011;24934;52.752;6.964;2022-12-18T03:35:26;116.17;;;44.33;;
39218;SDS011;24934;52.752;6.964;2022-12-18T03:37:56;116.07;;;45.93;;
39218;SDS011;24934;52.752;6.964;2022-12-18T03:40:26;110.30;;;45.80;;
39218;SDS011;24934;52.752;6.964;2022-12-18T03:43:11;109.30;;;43.73;;
39218;SDS011;24934;52.752;6.964;2022-12-18T03:45:46;112.73;;;45.37;;
39218;SDS011;24934;52.752;6.964;2022-12-18T03:50:57;105.47;;;42.53;;
39218;SDS011;24934;52.752;6.964;2022-12-18T03:56:22;104.00;;;43.33;;
39218;SDS011;24934;52.752;6.964;2022-12-18T03:58:51;102.33;;;43.40;;
39218;SDS011;24934;52.752;6.964;2022-12-18T04:01:18;102.13;;;42.57;;
39218;SDS011;24934;52.752;6.964;2022-12-18T04:03:47;98.90;;;42.70;;
39218;SDS011;24934;52.752;6.964;2022-12-18T04:06:14;101.77;;;44.10;;
39218;SDS011;24934;52.752;6.964;2022-12-18T04:08:41;94.50;;;41.93;;
39218;SDS011;24934;52.752;6.964;2022-12-18T04:11:07;108.53;;;44.97;;
39218;SDS011;24934;52.752;6.964;2022-12-18T04:13:36;101.23;;;42.47;;
39218;SDS011;24934;52.752;6.964;2022-12-18T04:16:03;104.53;;;43.43;;
39218;SDS011;24934;52.752;6.964;2022-12-18T04:18:29;101.93;;;42.77;;
39218;SDS011;24934;52.752;6.964;2022-12-18T04:20:58;103.33;;;42.93;;
39218;SDS011;24934;52.752;6.964;2022-12-18T04:23:23;104.67;;;42.70;;
39218;SDS011;24934;52.752;6.964;2022-12-18T04:25:49;94.47;;;42.53;;
39218;SDS011;24934;52.752;6.964;2022-12-18T04:28:15;104.70;;;43.57;;
39218;SDS011;24934;52.752;6.964;2022-12-18T04:30:40;100.20;;;41.87;;
39218;SDS011;24934;52.752;6.964;2022-12-18T04:33:10;98.83;;;43.23;;
39218;SDS011;24934;52.752;6.964;2022-12-18T04:35:37;92.57;;;43.57;;
39218;SDS011;24934;52.752;6.964;2022-12-18T04:38:03;88.13;;;41.97;;
39218;SDS011;24934;52.752;6.964;2022-12-18T04:40:30;100.13;;;43.50;;
39218;SDS011;24934;52.752;6.964;2022-12-18T04:42:55;97.53;;;43.47;;
39218;SDS011;24934;52.752;6.964;2022-12-18T04:45:21;96.40;;;42.67;;
39218;SDS011;24934;52.752;6.964;2022-12-18T04:47:47;89.53;;;41.60;;
39218;SDS011;24934;52.752;6.964;2022-12-18T04:50:12;95.30;;;42.90;;
39218;SDS011;24934;52.752;6.964;2022-12-18T04:52:38;94.10;;;42.67;;
39218;SDS011;24934;52.752;6.964;2022-12-18T04:55:03;90.47;;;41.50;;
39218;SDS011;24934;52.752;6.964;2022-12-18T04:57:29;95.37;;;43.43;;
39218;SDS011;24934;52.752;6.964;2022-12-18T04:59:55;88.77;;;42.23;;
39218;SDS011;24934;52.752;6.964;2022-12-18T05:02:21;89.07;;;41.07;;
39218;SDS011;24934;52.752;6.964;2022-12-18T05:04:46;92.47;;;40.13;;
39218;SDS011;24934;52.752;6.964;2022-12-18T05:07:15;91.20;;;40.67;;
39218;SDS011;24934;52.752;6.964;2022-12-18T05:09:40;94.53;;;41.20;;
39218;SDS011;24934;52.752;6.964;2022-12-18T05:12:06;87.00;;;40.60;;
39218;SDS011;24934;52.752;6.964;2022-12-18T05:14:31;88.03;;;39.70;;
39218;SDS011;24934;52.752;6.964;2022-12-18T05:16:57;93.63;;;41.13;;
39218;SDS011;24934;52.752;6.964;2022-12-18T05:19:23;82.83;;;39.40;;
39218;SDS011;24934;52.752;6.964;2022-12-18T05:21:49;79.30;;;39.73;;
39218;SDS011;24934;52.752;6.964;2022-12-18T05:24:14;86.33;;;38.90;;
39218;SDS011;24934;52.752;6.964;2022-12-18T05:26:40;86.17;;;39.67;;
39218;SDS011;24934;52.752;6.964;2022-12-18T05:29:06;88.10;;;40.57;;
39218;SDS011;24934;52.752;6.964;2022-12-18T05:31:31;78.73;;;38.10;;
39218;SDS011;24934;52.752;6.964;2022-12-18T05:33:57;84.73;;;39.20;;
39218;SDS011;24934;52.752;6.964;2022-12-18T05:36:23;75.43;;;38.07;;
39218;SDS011;24934;52.752;6.964;2022-12-18T05:38:48;84.27;;;39.00;;
39218;SDS011;24934;52.752;6.964;2022-12-18T05:41:14;78.30;;;38.10;;
39218;SDS011;24934;52.752;6.964;2022-12-18T05:43:43;79.93;;;37.83;;
39218;SDS011;24934;52.752;6.964;2022-12-18T05:46:11;76.13;;;37.57;;
39218;SDS011;24934;52.752;6.964;2022-12-18T05:48:38;73.97;;;38.30;;
39218;SDS011;24934;52.752;6.964;2022-12-18T05:51:09;84.53;;;39.40;;
39218;SDS011;24934;52.752;6.964;2022-12-18T05:53:36;77.67;;;38.33;;
39218;SDS011;24934;52.752;6.964;2022-12-18T05:56:03;75.73;;;37.10;;
39218;SDS011;24934;52.752;6.964;2022-12-18T05:58:31;80.57;;;38.97;;
39218;SDS011;24934;52.752;6.964;2022-12-18T06:01:05;79.83;;;37.87;;
39218;SDS011;24934;52.752;6.964;2022-12-18T06:03:44;78.70;;;38.30;;
39218;SDS011;24934;52.752;6.964;2022-12-18T06:06:28;78.90;;;37.73;;
39218;SDS011;24934;52.752;6.964;2022-12-18T06:08:55;84.03;;;39.60;;
39218;SDS011;24934;52.752;6.964;2022-12-18T06:11:22;78.93;;;37.57;;
39218;SDS011;24934;52.752;6.964;2022-12-18T06:13:50;83.20;;;39.50;;
39218;SDS011;24934;52.752;6.964;2022-12-18T06:16:16;79.77;;;38.03;;
39218;SDS011;24934;52.752;6.964;2022-12-18T06:18:42;82.17;;;39.77;;
39218;SDS011;24934;52.752;6.964;2022-12-18T06:21:08;71.83;;;36.13;;
39218;SDS011;24934;52.752;6.964;2022-12-18T06:23:33;75.43;;;35.37;;
39218;SDS011;24934;52.752;6.964;2022-12-18T06:26:08;68.37;;;34.37;;
39218;SDS011;24934;52.752;6.964;2022-12-18T06:28:35;81.53;;;37.13;;
39218;SDS011;24934;52.752;6.964;2022-12-18T06:31:02;69.77;;;35.63;;
39218;SDS011;24934;52.752;6.964;2022-12-18T06:33:28;68.70;;;34.87;;
39218;SDS011;24934;52.752;6.964;2022-12-18T06:35:59;73.60;;;35.70;;
39218;SDS011;24934;52.752;6.964;2022-12-18T06:38:26;68.87;;;33.63;;
39218;SDS011;24934;52.752;6.964;2022-12-18T06:40:54;66.23;;;34.73;;
39218;SDS011;24934;52.752;6.964;2022-12-18T06:43:20;63.63;;;33.90;;
39218;SDS011;24934;52.752;6.964;2022-12-18T06:45:45;68.83;;;34.60;;
39218;SDS011;24934;52.752;6.964;2022-12-18T06:48:17;65.20;;;33.83;;
39218;SDS011;24934;52.752;6.964;2022-12-18T06:50:44;63.67;;;33.17;;
39218;SDS011;24934;52.752;6.964;2022-12-18T06:53:10;67.03;;;34.03;;
39218;SDS011;24934;52.752;6.964;2022-12-18T06:55:36;67.30;;;34.30;;
39218;SDS011;24934;52.752;6.964;2022-12-18T06:58:01;62.10;;;33.47;;
39218;SDS011;24934;52.752;6.964;2022-12-18T07:00:27;65.40;;;33.33;;
39218;SDS011;24934;52.752;6.964;2022-12-18T07:02:52;64.13;;;32.57;;
39218;SDS011;24934;52.752;6.964;2022-12-18T07:05:18;59.93;;;32.53;;
39218;SDS011;24934;52.752;6.964;2022-12-18T07:07:44;55.23;;;31.30;;
39218;SDS011;24934;52.752;6.964;2022-12-18T07:10:12;63.53;;;32.23;;
39218;SDS011;24934;52.752;6.964;2022-12-18T07:12:38;53.77;;;31.73;;
39218;SDS011;24934;52.752;6.964;2022-12-18T07:15:03;59.10;;;31.57;;
39218;SDS011;24934;52.752;6.964;2022-12-18T07:17:29;65.90;;;32.57;;
39218;SDS011;24934;52.752;6.964;2022-12-18T07:19:55;58.07;;;31.37;;
39218;SDS011;24934;52.752;6.964;2022-12-18T07:22:21;59.67;;;30.70;;
39218;SDS011;24934;52.752;6.964;2022-12-18T07:24:46;52.93;;;30.17;;
39218;SDS011;24934;52.752;6.964;2022-12-18T07:27:15;51.67;;;29.83;;
39218;SDS011;24934;52.752;6.964;2022-12-18T07:29:41;51.33;;;30.27;;
39218;SDS011;24934;52.752;6.964;2022-12-18T07:32:07;53.83;;;29.77;;
39218;SDS011;24934;52.752;6.964;2022-12-18T07:34:33;53.63;;;30.07;;
39218;SDS011;24934;52.752;6.964;2022-12-18T07:36:59;51.60;;;29.20;;
39218;SDS011;24934;52.752;6.964;2022-12-18T07:39:25;66.33;;;32.30;;
39218;SDS011;24934;52.752;6.964;2022-12-18T07:41:51;55.20;;;30.20;;
39218;SDS011;24934;52.752;6.964;2022-12-18T07:44:35;58.40;;;31.63;;
39218;SDS011;24934;52.752;6.964;2022-12-18T07:47:01;53.00;;;31.80;;
39218;SDS011;24934;52.752;6.964;2022-12-18T07:49:30;55.03;;;31.23;;
39218;SDS011;24934;52.752;6.964;2022-12-18T07:51:55;51.37;;;30.00;;
39218;SDS011;24934;52.752;6.964;2022-12-18T07:54:22;54.60;;;30.87;;
39218;SDS011;24934;52.752;6.964;2022-12-18T07:56:48;54.80;;;31.43;;
39218;SDS011;24934;52.752;6.964;2022-12-18T07:59:14;52.57;;;30.43;;
39218;SDS011;24934;52.752;6.964;2022-12-18T08:01:40;53.33;;;29.57;;
39218;SDS011;24934;52.752;6.964;2022-12-18T08:04:05;49.73;;;29.50;;
39218;SDS011;24934;52.752;6.964;2022-12-18T08:06:31;49.00;;;28.00;;
39218;SDS011;24934;52.752;6.964;2022-12-18T08:08:57;53.87;;;28.97;;
39218;SDS011;24934;52.752;6.964;2022-12-18T08:11:24;46.77;;;29.10;;
39218;SDS011;24934;52.752;6.964;2022-12-18T08:13:51;55.97;;;30.57;;
39218;SDS011;24934;52.752;6.964;2022-12-18T08:16:18;47.93;;;29.27;;
39218;SDS011;24934;52.752;6.964;2022-12-18T08:18:44;45.73;;;28.03;;
39218;SDS011;24934;52.752;6.964;2022-12-18T08:21:14;44.20;;;25.93;;
39218;SDS011;24934;52.752;6.964;2022-12-18T08:23:40;41.40;;;26.37;;
39218;SDS011;24934;52.752;6.964;2022-12-18T08:26:06;44.63;;;26.37;;
39218;SDS011;24934;52.752;6.964;2022-12-18T08:28:35;42.57;;;26.13;;
39218;SDS011;24934;52.752;6.964;2022-12-18T08:31:00;39.77;;;26.00;;
39218;SDS011;24934;52.752;6.964;2022-12-18T08:33:29;41.83;;;25.60;;
39218;SDS011;24934;52.752;6.964;2022-12-18T08:35:56;36.07;;;24.40;;
39218;SDS011;24934;52.752;6.964;2022-12-18T08:38:24;41.17;;;24.47;;
39218;SDS011;24934;52.752;6.964;2022-12-18T08:40:57;37.73;;;24.27;;
39218;SDS011;24934;52.752;6.964;2022-12-18T08:43:24;38.33;;;25.47;;
39218;SDS011;24934;52.752;6.964;2022-12-18T08:46:08;35.53;;;23.43;;
39218;SDS011;24934;52.752;6.964;2022-12-18T08:48:34;33.70;;;23.50;;
39218;SDS011;24934;52.752;6.964;2022-12-18T08:51:00;33.63;;;23.53;;
39218;SDS011;24934;52.752;6.964;2022-12-18T08:53:26;30.83;;;22.93;;
39218;SDS011;24934;52.752;6.964;2022-12-18T08:55:53;31.53;;;22.43;;
39218;SDS011;24934;52.752;6.964;2022-12-18T08:58:18;30.03;;;22.53;;
39218;SDS011;24934;52.752;6.964;2022-12-18T09:00:44;27.97;;;21.03;;
39218;SDS011;24934;52.752;6.964;2022-12-18T09:03:13;33.60;;;22.50;;
39218;SDS011;24934;52.752;6.964;2022-12-18T09:05:39;30.13;;;22.60;;
39218;SDS011;24934;52.752;6.964;2022-12-18T09:08:05;29.03;;;21.43;;
39218;SDS011;24934;52.752;6.964;2022-12-18T09:10:31;28.73;;;22.53;;
39218;SDS011;24934;52.752;6.964;2022-12-18T09:12:57;28.97;;;22.27;;
39218;SDS011;24934;52.752;6.964;2022-12-18T09:15:23;30.10;;;21.83;;
39218;SDS011;24934;52.752;6.964;2022-12-18T09:17:48;33.43;;;24.60;;
39218;SDS011;24934;52.752;6.964;2022-12-18T09:20:15;35.53;;;25.43;;
39218;SDS011;24934;52.752;6.964;2022-12-18T09:22:41;31.37;;;23.33;;
39218;SDS011;24934;52.752;6.964;2022-12-18T09:25:07;28.37;;;23.33;;
39218;SDS011;24934;52.752;6.964;2022-12-18T09:27:33;26.33;;;21.87;;
39218;SDS011;24934;52.752;6.964;2022-12-18T09:29:59;27.70;;;22.33;;
39218;SDS011;24934;52.752;6.964;2022-12-18T09:32:26;31.47;;;21.87;;
39218;SDS011;24934;52.752;6.964;2022-12-18T09:34:54;26.90;;;21.77;;
39218;SDS011;24934;52.752;6.964;2022-12-18T09:37:23;30.07;;;21.73;;
39218;SDS011;24934;52.752;6.964;2022-12-18T09:39:48;27.80;;;21.13;;
39218;SDS011;24934;52.752;6.964;2022-12-18T09:42:17;26.37;;;20.90;;
39218;SDS011;24934;52.752;6.964;2022-12-18T09:44:48;28.30;;;20.73;;
39218;SDS011;24934;52.752;6.964;2022-12-18T09:47:23;27.37;;;21.60;;
39218;SDS011;24934;52.752;6.964;2022-12-18T09:50:03;28.83;;;22.67;;
39218;SDS011;24934;52.752;6.964;2022-12-18T09:52:42;32.40;;;21.70;;
39218;SDS011;24934;52.752;6.964;2022-12-18T10:00:41;30.10;;;22.43;;
39218;SDS011;24934;52.752;6.964;2022-12-18T10:03:11;28.90;;;21.73;;
39218;SDS011;24934;52.752;6.964;2022-12-18T10:06:00;28.53;;;21.47;;
39218;SDS011;24934;52.752;6.964;2022-12-18T10:08:36;26.70;;;21.23;;
39218;SDS011;24934;52.752;6.964;2022-12-18T10:14:04;26.43;;;20.53;;
39218;SDS011;24934;52.752;6.964;2022-12-18T10:19:33;25.57;;;20.73;;
39218;SDS011;24934;52.752;6.964;2022-12-18T10:22:18;22.83;;;20.03;;
39218;SDS011;24934;52.752;6.964;2022-12-18T10:27:21;26.93;;;21.57;;
39218;SDS011;24934;52.752;6.964;2022-12-18T10:29:51;27.43;;;20.63;;
39218;SDS011;24934;52.752;6.964;2022-12-18T10:32:25;22.87;;;20.30;;
39218;SDS011;24934;52.752;6.964;2022-12-18T10:34:55;25.07;;;19.43;;
39218;SDS011;24934;52.752;6.964;2022-12-18T10:37:24;24.20;;;20.57;;
39218;SDS011;24934;52.752;6.964;2022-12-18T10:42:42;30.73;;;21.77;;
39218;SDS011;24934;52.752;6.964;2022-12-18T10:45:13;27.43;;;21.47;;
39218;SDS011;24934;52.752;6.964;2022-12-18T10:47:45;34.30;;;25.17;;
39218;SDS011;24934;52.752;6.964;2022-12-18T10:50:28;34.97;;;25.00;;
39218;SDS011;24934;52.752;6.964;2022-12-18T10:53:00;35.23;;;25.93;;
39218;SDS011;24934;52.752;6.964;2022-12-18T10:55:31;44.20;;;26.43;;
39218;SDS011;24934;52.752;6.964;2022-12-18T10:58:54;50.03;;;30.03;;
39218;SDS011;24934;52.752;6.964;2022-12-18T11:03:35;27.77;;;20.57;;
39218;SDS011;24934;52.752;6.964;2022-12-18T11:08:34;24.77;;;18.70;;
39218;SDS011;24934;52.752;6.964;2022-12-18T11:11:00;21.30;;;18.13;;
39218;SDS011;24934;52.752;6.964;2022-12-18T11:13:27;24.23;;;18.17;;
39218;SDS011;24934;52.752;6.964;2022-12-18T11:15:54;20.17;;;17.83;;
39218;SDS011;24934;52.752;6.964;2022-12-18T11:18:31;19.50;;;17.40;;
39218;SDS011;24934;52.752;6.964;2022-12-18T11:21:00;22.07;;;18.57;;
39218;SDS011;24934;52.752;6.964;2022-12-18T11:23:33;21.07;;;17.90;;
39218;SDS011;24934;52.752;6.964;2022-12-18T11:26:00;22.37;;;18.10;;
39218;SDS011;24934;52.752;6.964;2022-12-18T11:36:31;21.77;;;18.10;;
39218;SDS011;24934;52.752;6.964;2022-12-18T11:39:00;24.40;;;18.20;;
39218;SDS011;24934;52.752;6.964;2022-12-18T11:49:53;21.03;;;18.30;;
39218;SDS011;24934;52.752;6.964;2022-12-18T11:52:26;22.73;;;17.90;;
39218;SDS011;24934;52.752;6.964;2022-12-18T11:55:14;22.10;;;18.23;;
39218;SDS011;24934;52.752;6.964;2022-12-18T11:58:11;22.10;;;18.53;;
39218;SDS011;24934;52.752;6.964;2022-12-18T12:07:12;24.73;;;20.20;;
39218;SDS011;24934;52.752;6.964;2022-12-18T12:09:46;22.47;;;18.90;;
39218;SDS011;24934;52.752;6.964;2022-12-18T12:24:05;23.13;;;18.60;;
39218;SDS011;24934;52.752;6.964;2022-12-18T12:38:37;24.00;;;18.87;;
39218;SDS011;24934;52.752;6.964;2022-12-18T12:41:14;21.87;;;18.63;;
39218;SDS011;24934;52.752;6.964;2022-12-18T12:44:03;25.93;;;18.87;;
39218;SDS011;24934;52.752;6.964;2022-12-18T12:46:35;23.07;;;19.47;;
39218;SDS011;24934;52.752;6.964;2022-12-18T12:49:07;29.33;;;20.63;;
39218;SDS011;24934;52.752;6.964;2022-12-18T12:52:03;22.90;;;19.10;;
39218;SDS011;24934;52.752;6.964;2022-12-18T12:54:32;25.43;;;19.13;;
39218;SDS011;24934;52.752;6.964;2022-12-18T12:57:01;24.17;;;19.23;;
39218;SDS011;24934;52.752;6.964;2022-12-18T12:59:41;21.63;;;18.40;;
39218;SDS011;24934;52.752;6.964;2022-12-18T13:05:56;24.27;;;18.30;;
39218;SDS011;24934;52.752;6.964;2022-12-18T13:08:31;23.97;;;18.67;;
39218;SDS011;24934;52.752;6.964;2022-12-18T13:11:37;23.50;;;19.60;;
39218;SDS011;24934;52.752;6.964;2022-12-18T13:14:24;23.77;;;18.30;;
39218;SDS011;24934;52.752;6.964;2022-12-18T13:17:13;21.20;;;18.23;;
39218;SDS011;24934;52.752;6.964;2022-12-18T13:20:07;25.03;;;19.13;;
39218;SDS011;24934;52.752;6.964;2022-12-18T13:22:46;25.33;;;18.77;;
39218;SDS011;24934;52.752;6.964;2022-12-18T13:25:33;25.83;;;19.40;;
39218;SDS011;24934;52.752;6.964;2022-12-18T13:40:57;22.17;;;18.30;;
39218;SDS011;24934;52.752;6.964;2022-12-18T13:43:27;21.30;;;17.87;;
39218;SDS011;24934;52.752;6.964;2022-12-18T13:51:42;20.50;;;17.37;;
39218;SDS011;24934;52.752;6.964;2022-12-18T13:54:30;22.00;;;17.50;;
39218;SDS011;24934;52.752;6.964;2022-12-18T13:57:02;20.77;;;18.03;;
39218;SDS011;24934;52.752;6.964;2022-12-18T13:59:36;22.67;;;18.87;;
39218;SDS011;24934;52.752;6.964;2022-12-18T14:02:12;24.60;;;18.83;;
39218;SDS011;24934;52.752;6.964;2022-12-18T14:04:44;24.73;;;19.90;;
39218;SDS011;24934;52.752;6.964;2022-12-18T14:07:18;26.40;;;19.17;;
39218;SDS011;24934;52.752;6.964;2022-12-18T14:09:53;23.87;;;19.53;;
39218;SDS011;24934;52.752;6.964;2022-12-18T14:12:25;25.03;;;19.47;;
39218;SDS011;24934;52.752;6.964;2022-12-18T14:15:19;35.60;;;18.90;;
39218;SDS011;24934;52.752;6.964;2022-12-18T14:17:47;23.60;;;19.07;;
39218;SDS011;24934;52.752;6.964;2022-12-18T14:20:19;26.00;;;19.03;;
39218;SDS011;24934;52.752;6.964;2022-12-18T14:22:46;24.17;;;19.07;;
39218;SDS011;24934;52.752;6.964;2022-12-18T14:30:36;23.27;;;18.83;;
39218;SDS011;24934;52.752;6.964;2022-12-18T14:33:04;26.27;;;19.80;;
39218;SDS011;24934;52.752;6.964;2022-12-18T14:35:39;27.33;;;20.33;;
39218;SDS011;24934;52.752;6.964;2022-12-18T14:38:10;26.70;;;19.70;;
39218;SDS011;24934;52.752;6.964;2022-12-18T14:41:02;23.50;;;18.90;;
39218;SDS011;24934;52.752;6.964;2022-12-18T14:43:32;23.97;;;18.93;;
39218;SDS011;24934;52.752;6.964;2022-12-18T14:46:00;22.33;;;19.13;;
39218;SDS011;24934;52.752;6.964;2022-12-18T14:48:33;23.53;;;19.27;;
39218;SDS011;24934;52.752;6.964;2022-12-18T14:53:48;29.93;;;21.57;;
39218;SDS011;24934;52.752;6.964;2022-12-18T14:56:23;27.63;;;20.97;;
39218;SDS011;24934;52.752;6.964;2022-12-18T14:58:57;26.93;;;19.60;;
39218;SDS011;24934;52.752;6.964;2022-12-18T15:01:32;26.40;;;19.67;;
39218;SDS011;24934;52.752;6.964;2022-12-18T15:04:03;25.03;;;19.00;;
39218;SDS011;24934;52.752;6.964;2022-12-18T15:06:34;26.43;;;19.13;;
39218;SDS011;24934;52.752;6.964;2022-12-18T15:09:05;24.70;;;19.97;;
39218;SDS011;24934;52.752;6.964;2022-12-18T15:11:46;25.87;;;19.93;;
39218;SDS011;24934;52.752;6.964;2022-12-18T15:17:05;26.27;;;19.80;;
39218;SDS011;24934;52.752;6.964;2022-12-18T15:19:40;24.00;;;19.47;;
39218;SDS011;24934;52.752;6.964;2022-12-18T15:24:45;22.77;;;18.83;;
39218;SDS011;24934;52.752;6.964;2022-12-18T15:32:35;29.37;;;20.27;;
39218;SDS011;24934;52.752;6.964;2022-12-18T15:37:34;27.07;;;21.67;;
39218;SDS011;24934;52.752;6.964;2022-12-18T15:39:59;24.60;;;18.50;;
39218;SDS011;24934;52.752;6.964;2022-12-18T15:42:27;26.77;;;19.40;;
39218;SDS011;24934;52.752;6.964;2022-12-18T15:45:11;29.10;;;21.20;;
39218;SDS011;24934;52.752;6.964;2022-12-18T15:47:40;24.43;;;18.80;;
39218;SDS011;24934;52.752;6.964;2022-12-18T15:50:08;24.73;;;19.73;;
39218;SDS011;24934;52.752;6.964;2022-12-18T15:52:45;24.50;;;19.63;;
39218;SDS011;24934;52.752;6.964;2022-12-18T15:55:16;23.90;;;18.57;;
39218;SDS011;24934;52.752;6.964;2022-12-18T15:58:03;24.57;;;19.20;;
39218;SDS011;24934;52.752;6.964;2022-12-18T16:00:29;23.17;;;19.00;;
39218;SDS011;24934;52.752;6.964;2022-12-18T16:02:59;23.77;;;18.83;;
39218;SDS011;24934;52.752;6.964;2022-12-18T16:05:25;23.33;;;19.37;;
39218;SDS011;24934;52.752;6.964;2022-12-18T16:07:52;22.57;;;18.90;;
39218;SDS011;24934;52.752;6.964;2022-12-18T16:10:17;26.17;;;19.47;;
39218;SDS011;24934;52.752;6.964;2022-12-18T16:12:43;23.97;;;19.20;;
39218;SDS011;24934;52.752;6.964;2022-12-18T16:15:14;27.93;;;19.83;;
39218;SDS011;24934;52.752;6.964;2022-12-18T16:17:41;23.63;;;19.13;;
39218;SDS011;24934;52.752;6.964;2022-12-18T16:20:14;24.43;;;19.13;;
39218;SDS011;24934;52.752;6.964;2022-12-18T16:22:45;23.97;;;19.03;;
39218;SDS011;24934;52.752;6.964;2022-12-18T16:25:19;23.07;;;18.40;;
39218;SDS011;24934;52.752;6.964;2022-12-18T16:27:50;23.23;;;18.97;;
39218;SDS011;24934;52.752;6.964;2022-12-18T16:30:17;23.10;;;18.90;;
39218;SDS011;24934;52.752;6.964;2022-12-18T16:32:53;20.90;;;17.67;;
39218;SDS011;24934;52.752;6.964;2022-12-18T16:35:19;21.83;;;18.17;;
39218;SDS011;24934;52.752;6.964;2022-12-18T16:37:48;24.70;;;19.50;;
39218;SDS011;24934;52.752;6.964;2022-12-18T16:40:22;23.30;;;17.83;;
39218;SDS011;24934;52.752;6.964;2022-12-18T16:42:47;24.33;;;18.87;;
39218;SDS011;24934;52.752;6.964;2022-12-18T16:45:17;21.10;;;17.93;;
39218;SDS011;24934;52.752;6.964;2022-12-18T16:47:43;24.13;;;18.10;;
39218;SDS011;24934;52.752;6.964;2022-12-18T16:50:09;21.50;;;18.23;;
39218;SDS011;24934;52.752;6.964;2022-12-18T16:52:36;22.10;;;18.20;;
39218;SDS011;24934;52.752;6.964;2022-12-18T16:55:04;22.90;;;17.67;;